sensor_id;sensor_type;location;lat;lon;timestamp;pressure;altitude;pressure_sealevel;temperature;humidity
54882;BME280;40775;51.448;4.742;2023-07-02T00:00:19;100708.19;;;18.89;100.00
54882;BME280;40775;51.448;4.742;2023-07-02T00:02:46;100704.63;;;18.89;100.00
54882;BME280;40775;51.448;4.742;2023-07-02T00:05:13;100703.75;;;18.90;100.00
54882;BME280;40775;51.448;4.742;2023-07-02T00:07:40;100710.88;;;18.88;100.00
54882;BME280;40775;51.448;4.742;2023-07-02T00:10:07;100710.03;;;18.84;100.00
54882;BME280;40775;51.448;4.742;2023-07-02T00:12:34;100712.72;;;18.82;100.00
54882;BME280;40775;51.448;4.742;2023-07-02T00:15:02;100711.81;;;18.83;100.00
54882;BME280;40775;51.448;4.742;2023-07-02T00:17:30;100712.75;;;18.81;100.00
54882;BME280;40775;51.448;4.742;2023-07-02T00:19:57;100714.53;;;18.80;100.00
54882;BME280;40775;51.448;4.742;2023-07-02T00:22:32;100711.03;;;18.78;100.00
54882;BME280;40775;51.448;4.742;2023-07-02T00:25:03;100709.31;;;18.74;100.00
54882;BME280;40775;51.448;4.742;2023-07-02T00:27:30;100716.34;;;18.78;100.00
54882;BME280;40775;51.448;4.742;2023-07-02T00:29:59;100711.03;;;18.77;100.00
54882;BME280;40775;51.448;4.742;2023-07-02T00:32:26;100715.47;;;18.76;100.00
54882;BME280;40775;51.448;4.742;2023-07-02T00:34:53;100710.19;;;18.75;100.00
54882;BME280;40775;51.448;4.742;2023-07-02T00:37:20;100717.31;;;18.73;100.00
54882;BME280;40775;51.448;4.742;2023-07-02T00:39:50;100712.88;;;18.73;100.00
54882;BME280;40775;51.448;4.742;2023-07-02T00:42:17;100713.69;;;18.78;100.00
54882;BME280;40775;51.448;4.742;2023-07-02T00:44:47;100714.63;;;18.74;100.00
54882;BME280;40775;51.448;4.742;2023-07-02T00:47:13;100734.19;;;18.72;100.00
54882;BME280;40775;51.448;4.742;2023-07-02T00:49:41;100720.91;;;18.70;100.00
54882;BME280;40775;51.448;4.742;2023-07-02T00:52:08;100732.47;;;18.68;100.00
54882;BME280;40775;51.448;4.742;2023-07-02T00:54:35;100733.31;;;18.70;100.00
54882;BME280;40775;51.448;4.742;2023-07-02T00:57:03;100728.97;;;18.64;100.00
54882;BME280;40775;51.448;4.742;2023-07-02T00:59:31;100733.41;;;18.62;100.00
54882;BME280;40775;51.448;4.742;2023-07-02T01:02:01;100734.28;;;18.61;100.00
54882;BME280;40775;51.448;4.742;2023-07-02T01:04:28;100737.88;;;18.57;100.00
54882;BME280;40775;51.448;4.742;2023-07-02T01:06:55;100745.06;;;18.52;100.00
54882;BME280;40775;51.448;4.742;2023-07-02T01:09:24;100744.09;;;18.56;100.00
54882;BME280;40775;51.448;4.742;2023-07-02T01:12:00;100734.34;;;18.57;100.00
54882;BME280;40775;51.448;4.742;2023-07-02T01:14:38;100750.38;;;18.52;100.00
54882;BME280;40775;51.448;4.742;2023-07-02T01:17:06;100748.63;;;18.51;100.00
54882;BME280;40775;51.448;4.742;2023-07-02T01:19:49;100752.22;;;18.47;100.00
54882;BME280;40775;51.448;4.742;2023-07-02T01:22:23;100749.59;;;18.45;100.00
54882;BME280;40775;51.448;4.742;2023-07-02T01:24:52;100757.53;;;18.47;100.00
54882;BME280;40775;51.448;4.742;2023-07-02T01:27:19;100747.78;;;18.47;100.00
54882;BME280;40775;51.448;4.742;2023-07-02T01:29:51;100750.47;;;18.46;100.00
54882;BME280;40775;51.448;4.742;2023-07-02T01:32:18;100757.59;;;18.42;100.00
54882;BME280;40775;51.448;4.742;2023-07-02T01:34:45;100763.88;;;18.38;100.00
54882;BME280;40775;51.448;4.742;2023-07-02T01:37:16;100758.56;;;18.37;100.00
54882;BME280;40775;51.448;4.742;2023-07-02T01:39:46;100769.22;;;18.35;100.00
54882;BME280;40775;51.448;4.742;2023-07-02T01:42:18;100762.16;;;18.31;100.00
54882;BME280;40775;51.448;4.742;2023-07-02T01:44:48;100764.84;;;18.30;100.00
54882;BME280;40775;51.448;4.742;2023-07-02T01:47:23;100762.22;;;18.27;100.00
54882;BME280;40775;51.448;4.742;2023-07-02T01:49:50;100769.31;;;18.26;100.00
54882;BME280;40775;51.448;4.742;2023-07-02T01:52:18;100763.19;;;18.21;100.00
54882;BME280;40775;51.448;4.742;2023-07-02T01:54:45;100767.56;;;18.23;100.00
54882;BME280;40775;51.448;4.742;2023-07-02T01:57:13;100773.84;;;18.19;100.00
54882;BME280;40775;51.448;4.742;2023-07-02T01:59:40;100776.53;;;18.16;100.00
54882;BME280;40775;51.448;4.742;2023-07-02T02:02:07;100756.22;;;18.11;100.00
54882;BME280;40775;51.448;4.742;2023-07-02T02:04:34;100761.56;;;18.08;100.00
54882;BME280;40775;51.448;4.742;2023-07-02T02:07:03;100766.03;;;18.04;100.00
54882;BME280;40775;51.448;4.742;2023-07-02T02:09:30;100766.09;;;18.00;100.00
54882;BME280;40775;51.448;4.742;2023-07-02T02:11:59;100763.50;;;17.94;100.00
54882;BME280;40775;51.448;4.742;2023-07-02T02:14:27;100770.63;;;17.91;100.00
54882;BME280;40775;51.448;4.742;2023-07-02T02:16:54;100764.47;;;17.88;100.00
54882;BME280;40775;51.448;4.742;2023-07-02T02:19:21;100768.06;;;17.84;100.00
54882;BME280;40775;51.448;4.742;2023-07-02T02:21:48;100760.97;;;17.80;100.00
54882;BME280;40775;51.448;4.742;2023-07-02T02:24:15;100773.47;;;17.72;100.00
54882;BME280;40775;51.448;4.742;2023-07-02T02:26:42;100764.66;;;17.70;100.00
54882;BME280;40775;51.448;4.742;2023-07-02T02:29:09;100777.06;;;17.65;100.00
54882;BME280;40775;51.448;4.742;2023-07-02T02:31:36;100780.59;;;17.64;100.00
54882;BME280;40775;51.448;4.742;2023-07-02T02:34:04;100785.13;;;17.52;100.00
54882;BME280;40775;51.448;4.742;2023-07-02T02:36:31;100782.47;;;17.51;100.00
54882;BME280;40775;51.448;4.742;2023-07-02T02:39:01;100785.16;;;17.49;100.00
54882;BME280;40775;51.448;4.742;2023-07-02T02:41:31;100791.34;;;17.48;100.00
54882;BME280;40775;51.448;4.742;2023-07-02T02:43:58;100792.25;;;17.47;100.00
54882;BME280;40775;51.448;4.742;2023-07-02T02:46:25;100795.75;;;17.49;100.00
54882;BME280;40775;51.448;4.742;2023-07-02T02:48:53;100799.34;;;17.45;100.00
54882;BME280;40775;51.448;4.742;2023-07-02T02:51:20;100790.47;;;17.48;100.00
54882;BME280;40775;51.448;4.742;2023-07-02T02:53:47;100793.09;;;17.49;100.00
54882;BME280;40775;51.448;4.742;2023-07-02T02:56:14;100787.81;;;17.49;100.00
54882;BME280;40775;51.448;4.742;2023-07-02T02:58:41;100791.34;;;17.50;100.00
54882;BME280;40775;51.448;4.742;2023-07-02T03:01:08;100784.28;;;17.49;100.00
54882;BME280;40775;51.448;4.742;2023-07-02T03:03:39;100786.97;;;17.44;100.00
54882;BME280;40775;51.448;4.742;2023-07-02T03:06:15;100786.94;;;17.47;100.00
54882;BME280;40775;51.448;4.742;2023-07-02T03:08:42;100789.59;;;17.46;100.00
54882;BME280;40775;51.448;4.742;2023-07-02T03:11:11;100785.22;;;17.42;100.00
54882;BME280;40775;51.448;4.742;2023-07-02T03:13:38;100787.78;;;17.51;100.00
54882;BME280;40775;51.448;4.742;2023-07-02T03:16:05;100794.00;;;17.48;100.00
54882;BME280;40775;51.448;4.742;2023-07-02T03:18:33;100783.44;;;17.44;100.00
54882;BME280;40775;51.448;4.742;2023-07-02T03:21:00;100787.00;;;17.41;100.00
54882;BME280;40775;51.448;4.742;2023-07-02T03:23:27;100786.97;;;17.44;100.00
54882;BME280;40775;51.448;4.742;2023-07-02T03:25:54;100785.19;;;17.46;100.00
54882;BME280;40775;51.448;4.742;2023-07-02T03:28:21;100792.25;;;17.47;100.00
54882;BME280;40775;51.448;4.742;2023-07-02T03:30:48;100795.75;;;17.49;100.00
54882;BME280;40775;51.448;4.742;2023-07-02T03:33:15;100790.47;;;17.46;100.00
54882;BME280;40775;51.448;4.742;2023-07-02T03:35:44;100788.75;;;17.44;100.00
54882;BME280;40775;51.448;4.742;2023-07-02T03:38:11;100794.09;;;17.39;100.00
54882;BME280;40775;51.448;4.742;2023-07-02T03:40:39;100794.97;;;17.40;100.00
54882;BME280;40775;51.448;4.742;2023-07-02T03:43:07;100796.78;;;17.35;100.00
54882;BME280;40775;51.448;4.742;2023-07-02T03:45:34;100799.44;;;17.36;100.00
54882;BME280;40775;51.448;4.742;2023-07-02T03:48:01;100794.03;;;17.45;100.00
54882;BME280;40775;51.448;4.742;2023-07-02T03:50:28;100793.13;;;17.46;100.00
54882;BME280;40775;51.448;4.742;2023-07-02T03:52:55;100794.94;;;17.43;100.00
54882;BME280;40775;51.448;4.742;2023-07-02T03:55:22;100788.81;;;17.36;100.00
54882;BME280;40775;51.448;4.742;2023-07-02T03:57:49;100797.69;;;17.34;100.00
54882;BME280;40775;51.448;4.742;2023-07-02T04:00:16;100787.09;;;17.30;100.00
54882;BME280;40775;51.448;4.742;2023-07-02T04:02:43;100791.50;;;17.33;100.00
54882;BME280;40775;51.448;4.742;2023-07-02T04:05:10;100798.59;;;17.33;100.00
54882;BME280;40775;51.448;4.742;2023-07-02T04:07:38;100797.72;;;17.29;100.00
54882;BME280;40775;51.448;4.742;2023-07-02T04:10:06;100802.13;;;17.32;100.00
54882;BME280;40775;51.448;4.742;2023-07-02T04:12:33;100803.06;;;17.26;100.00
54882;BME280;40775;51.448;4.742;2023-07-02T04:15:00;100806.59;;;17.28;100.00
54882;BME280;40775;51.448;4.742;2023-07-02T04:17:30;100811.03;;;17.20;100.00
54882;BME280;40775;51.448;4.742;2023-07-02T04:20:03;100811.03;;;17.20;100.00
54882;BME280;40775;51.448;4.742;2023-07-02T04:22:31;100818.13;;;17.18;100.00
54882;BME280;40775;51.448;4.742;2023-07-02T04:24:58;100821.66;;;17.18;100.00
54882;BME280;40775;51.448;4.742;2023-07-02T04:27:31;100820.81;;;17.15;100.00
54882;BME280;40775;51.448;4.742;2023-07-02T04:30:16;100821.72;;;17.12;100.00
54882;BME280;40775;51.448;4.742;2023-07-02T04:46:41;100847.38;;;17.09;100.00
54882;BME280;40775;51.448;4.742;2023-07-02T04:49:10;100843.84;;;17.10;100.00
54882;BME280;40775;51.448;4.742;2023-07-02T04:51:37;100851.75;;;17.14;100.00
54882;BME280;40775;51.448;4.742;2023-07-02T04:54:04;100853.53;;;17.15;100.00
54882;BME280;40775;51.448;4.742;2023-07-02T04:56:34;100859.69;;;17.19;100.00
54882;BME280;40775;51.448;4.742;2023-07-02T04:59:01;100859.69;;;17.19;100.00
54882;BME280;40775;51.448;4.742;2023-07-02T05:01:28;100861.47;;;17.18;100.00
54882;BME280;40775;51.448;4.742;2023-07-02T05:03:55;100868.50;;;17.21;100.00
54882;BME280;40775;51.448;4.742;2023-07-02T05:06:23;100866.75;;;17.26;100.00
54882;BME280;40775;51.448;4.742;2023-07-02T05:08:50;100865.84;;;17.28;100.00
54882;BME280;40775;51.448;4.742;2023-07-02T05:11:19;100870.28;;;17.26;100.00
54882;BME280;40775;51.448;4.742;2023-07-02T05:13:46;100868.47;;;17.32;100.00
54882;BME280;40775;51.448;4.742;2023-07-02T05:16:14;100871.97;;;17.35;100.00
54882;BME280;40775;51.448;4.742;2023-07-02T05:18:44;100872.81;;;17.39;100.00
54882;BME280;40775;51.448;4.742;2023-07-02T05:21:12;100865.72;;;17.42;100.00
54882;BME280;40775;51.448;4.742;2023-07-02T05:23:39;100877.22;;;17.44;100.00
54882;BME280;40775;51.448;4.742;2023-07-02T05:26:06;100885.13;;;17.49;100.00
54882;BME280;40775;51.448;4.742;2023-07-02T05:28:33;100880.66;;;17.52;100.00
54882;BME280;40775;51.448;4.742;2023-07-02T05:31:00;100880.66;;;17.57;100.00
54882;BME280;40775;51.448;4.742;2023-07-02T05:33:32;100879.75;;;17.59;100.00
54882;BME280;40775;51.448;4.742;2023-07-02T05:36:00;100881.47;;;17.65;100.00
54882;BME280;40775;51.448;4.742;2023-07-02T05:38:27;100897.41;;;17.70;100.00
54882;BME280;40775;51.448;4.742;2023-07-02T05:40:54;100886.75;;;17.73;100.00
54882;BME280;40775;51.448;4.742;2023-07-02T05:43:21;100883.19;;;17.75;100.00
54882;BME280;40775;51.448;4.742;2023-07-02T05:45:51;100886.69;;;17.82;100.00
54882;BME280;40775;51.448;4.742;2023-07-02T05:48:19;100895.53;;;17.84;100.00
54882;BME280;40775;51.448;4.742;2023-07-02T05:50:46;100892.78;;;17.93;100.00
54882;BME280;40775;51.448;4.742;2023-07-02T05:53:13;100893.66;;;17.94;100.00
54882;BME280;40775;51.448;4.742;2023-07-02T05:55:42;100886.53;;;17.99;100.00
54882;BME280;40775;51.448;4.742;2023-07-02T05:58:12;100889.16;;;18.00;100.00
54882;BME280;40775;51.448;4.742;2023-07-02T06:00:39;100886.44;;;18.06;100.00
54882;BME280;40775;51.448;4.742;2023-07-02T06:03:08;100894.41;;;18.09;100.00
54882;BME280;40775;51.448;4.742;2023-07-02T06:05:37;100903.13;;;18.20;100.00
54882;BME280;40775;51.448;4.742;2023-07-02T06:08:07;100897.81;;;18.20;100.00
54882;BME280;40775;51.448;4.742;2023-07-02T06:10:34;100911.06;;;18.25;100.00
54882;BME280;40775;51.448;4.742;2023-07-02T06:13:01;100910.19;;;18.25;100.00
54882;BME280;40775;51.448;4.742;2023-07-02T06:15:28;100911.06;;;18.25;100.00
54882;BME280;40775;51.448;4.742;2023-07-02T06:17:58;100911.88;;;18.32;100.00
54882;BME280;40775;51.448;4.742;2023-07-02T06:20:25;100904.75;;;18.37;100.00
54882;BME280;40775;51.448;4.742;2023-07-02T06:23:00;100910.03;;;18.40;100.00
54882;BME280;40775;51.448;4.742;2023-07-02T06:25:27;100915.31;;;18.43;100.00
54882;BME280;40775;51.448;4.742;2023-07-02T06:27:56;100918.81;;;18.48;100.00
54882;BME280;40775;51.448;4.742;2023-07-02T06:30:25;100910.75;;;18.52;100.00
54882;BME280;40775;51.448;4.742;2023-07-02T06:32:54;100913.41;;;18.54;100.00
54882;BME280;40775;51.448;4.742;2023-07-02T06:35:24;100912.44;;;18.66;100.00
54882;BME280;40775;51.448;4.742;2023-07-02T06:37:51;100922.22;;;18.64;100.00
54882;BME280;40775;51.448;4.742;2023-07-02T06:40:20;100931.94;;;18.60;100.00
54882;BME280;40775;51.448;4.742;2023-07-02T06:42:49;100930.91;;;18.76;100.00
54882;BME280;40775;51.448;4.742;2023-07-02T06:45:17;100921.22;;;18.72;100.00
54882;BME280;40775;51.448;4.742;2023-07-02T06:47:44;100930.91;;;18.78;100.00
54882;BME280;40775;51.448;4.742;2023-07-02T06:50:11;100930.00;;;18.79;100.00
54882;BME280;40775;51.448;4.742;2023-07-02T06:52:42;100937.16;;;18.74;100.00
54882;BME280;40775;51.448;4.742;2023-07-02T06:55:09;100943.19;;;18.88;100.00
54882;BME280;40775;51.448;4.742;2023-07-02T06:57:43;100945.13;;;18.75;100.00
54882;BME280;40775;51.448;4.742;2023-07-02T07:00:15;100944.19;;;18.79;100.00
54882;BME280;40775;51.448;4.742;2023-07-02T07:02:44;100951.94;;;18.98;100.00
54882;BME280;40775;51.448;4.742;2023-07-02T07:05:11;100957.06;;;19.13;100.00
54882;BME280;40775;51.448;4.742;2023-07-02T07:07:38;100965.09;;;19.10;100.00
54882;BME280;40775;51.448;4.742;2023-07-02T07:10:13;100966.09;;;19.01;100.00
54882;BME280;40775;51.448;4.742;2023-07-02T07:12:40;100958.84;;;19.11;100.00
54882;BME280;40775;51.448;4.742;2023-07-02T07:15:08;100959.72;;;19.13;100.00
54882;BME280;40775;51.448;4.742;2023-07-02T07:17:35;100967.59;;;19.22;100.00
54882;BME280;40775;51.448;4.742;2023-07-02T07:20:02;100959.56;;;19.25;100.00
54882;BME280;40775;51.448;4.742;2023-07-02T07:22:33;100964.00;;;19.26;100.00
54882;BME280;40775;51.448;4.742;2023-07-02T07:25:00;100962.19;;;19.28;100.00
54882;BME280;40775;51.448;4.742;2023-07-02T07:27:30;100961.34;;;19.26;100.00
54882;BME280;40775;51.448;4.742;2023-07-02T07:29:57;100967.50;;;19.30;100.00
54882;BME280;40775;51.448;4.742;2023-07-02T07:32:24;100970.91;;;19.39;100.00
54882;BME280;40775;51.448;4.742;2023-07-02T07:34:51;100983.34;;;19.37;100.00
54882;BME280;40775;51.448;4.742;2023-07-02T07:37:18;100987.69;;;19.46;100.00
54882;BME280;40775;51.448;4.742;2023-07-02T07:39:45;100987.59;;;19.52;100.00
54882;BME280;40775;51.448;4.742;2023-07-02T07:42:14;100991.16;;;19.51;100.00
54882;BME280;40775;51.448;4.742;2023-07-02T07:44:45;100985.78;;;19.57;100.00
54882;BME280;40775;51.448;4.742;2023-07-02T07:47:15;100982.09;;;19.66;100.00
54882;BME280;40775;51.448;4.742;2023-07-02T07:49:42;100988.22;;;19.74;100.00
54882;BME280;40775;51.448;4.742;2023-07-02T07:52:09;100994.41;;;19.74;100.00
54882;BME280;40775;51.448;4.742;2023-07-02T07:54:36;100982.69;;;19.86;100.00
54882;BME280;40775;51.448;4.742;2023-07-02T07:57:04;100986.03;;;19.97;100.00
54882;BME280;40775;51.448;4.742;2023-07-02T07:59:31;100986.16;;;19.91;100.00
54882;BME280;40775;51.448;4.742;2023-07-02T08:01:59;100979.31;;;19.72;100.00
54882;BME280;40775;51.448;4.742;2023-07-02T08:04:32;100981.72;;;19.90;100.00
54882;BME280;40775;51.448;4.742;2023-07-02T08:07:00;100991.44;;;19.93;100.00
54882;BME280;40775;51.448;4.742;2023-07-02T08:09:27;100983.47;;;19.91;100.00
54882;BME280;40775;51.448;4.742;2023-07-02T08:11:54;100979.88;;;19.94;100.00
54882;BME280;40775;51.448;4.742;2023-07-02T08:14:22;100989.84;;;20.36;100.00
54882;BME280;40775;51.448;4.742;2023-07-02T08:16:50;100968.66;;;20.29;100.00
54882;BME280;40775;51.448;4.742;2023-07-02T08:19:18;100978.44;;;20.27;100.00
54882;BME280;40775;51.448;4.742;2023-07-02T08:21:47;100972.69;;;20.51;100.00
54882;BME280;40775;51.448;4.742;2023-07-02T08:24:15;100974.59;;;20.45;100.00
54882;BME280;40775;51.448;4.742;2023-07-02T08:26:45;100974.69;;;20.40;100.00
54882;BME280;40775;51.448;4.742;2023-07-02T08:29:12;100972.66;;;20.53;100.00
54882;BME280;40775;51.448;4.742;2023-07-02T08:31:40;100971.75;;;20.54;100.00
54882;BME280;40775;51.448;4.742;2023-07-02T08:34:08;100977.75;;;20.66;100.00
54882;BME280;40775;51.448;4.742;2023-07-02T08:36:35;100972.38;;;20.70;100.00
54882;BME280;40775;51.448;4.742;2023-07-02T08:39:07;100972.03;;;20.86;100.00
54882;BME280;40775;51.448;4.742;2023-07-02T08:41:47;100979.91;;;20.92;100.00
54882;BME280;40775;51.448;4.742;2023-07-02T08:44:19;100982.63;;;20.91;100.00
54882;BME280;40775;51.448;4.742;2023-07-02T08:46:50;100976.13;;;21.03;100.00
54882;BME280;40775;51.448;4.742;2023-07-02T08:49:20;100994.38;;;20.82;100.00
54882;BME280;40775;51.448;4.742;2023-07-02T08:51:47;100979.84;;;20.95;100.00
54882;BME280;40775;51.448;4.742;2023-07-02T08:54:16;100982.75;;;20.85;100.00
54882;BME280;40775;51.448;4.742;2023-07-02T08:56:44;100984.44;;;20.89;100.00
54882;BME280;40775;51.448;4.742;2023-07-02T08:59:16;100994.75;;;21.06;100.00
54882;BME280;40775;51.448;4.742;2023-07-02T09:01:51;100994.97;;;20.96;100.00
54882;BME280;40775;51.448;4.742;2023-07-02T09:04:46;100996.91;;;20.88;100.00
54882;BME280;40775;51.448;4.742;2023-07-02T09:07:13;100997.72;;;20.92;100.00
54882;BME280;40775;51.448;4.742;2023-07-02T09:09:50;100998.44;;;21.00;100.00
54882;BME280;40775;51.448;4.742;2023-07-02T09:15:05;101000.06;;;21.07;100.00
54882;BME280;40775;51.448;4.742;2023-07-02T09:17:35;100994.00;;;20.99;100.00
54882;BME280;40775;51.448;4.742;2023-07-02T09:20:05;101006.56;;;20.94;100.00
54882;BME280;40775;51.448;4.742;2023-07-02T09:22:36;101012.19;;;20.79;100.00
54882;BME280;40775;51.448;4.742;2023-07-02T09:25:05;101018.41;;;20.79;100.00
54882;BME280;40775;51.448;4.742;2023-07-02T09:27:40;101015.69;;;20.84;100.00
54882;BME280;40775;51.448;4.742;2023-07-02T09:30:14;101019.94;;;20.92;100.00
54882;BME280;40775;51.448;4.742;2023-07-02T09:32:44;101008.69;;;20.77;100.00
54882;BME280;40775;51.448;4.742;2023-07-02T09:35:12;101003.06;;;20.92;100.00
54882;BME280;40775;51.448;4.742;2023-07-02T09:37:48;101003.66;;;21.06;100.00
54882;BME280;40775;51.448;4.742;2023-07-02T09:40:16;101012.47;;;21.11;100.00
54882;BME280;40775;51.448;4.742;2023-07-02T09:42:45;101013.34;;;21.12;100.00
54882;BME280;40775;51.448;4.742;2023-07-02T09:45:21;101017.31;;;20.91;100.00
54882;BME280;40775;51.448;4.742;2023-07-02T09:47:53;101006.72;;;20.88;100.00
54882;BME280;40775;51.448;4.742;2023-07-02T09:50:22;101009.06;;;21.03;100.00
54882;BME280;40775;51.448;4.742;2023-07-02T09:52:50;100999.91;;;21.16;100.00
54882;BME280;40775;51.448;4.742;2023-07-02T09:55:17;101005.09;;;21.22;100.00
54882;BME280;40775;51.448;4.742;2023-07-02T09:57:47;101006.59;;;21.39;100.00
54882;BME280;40775;51.448;4.742;2023-07-02T10:00:15;101007.50;;;21.76;100.00
54882;BME280;40775;51.448;4.742;2023-07-02T10:02:49;101001.16;;;21.80;100.00
54882;BME280;40775;51.448;4.742;2023-07-02T10:05:28;101006.94;;;22.01;100.00
54882;BME280;40775;51.448;4.742;2023-07-02T10:08:16;101001.44;;;21.70;100.00
54882;BME280;40775;51.448;4.742;2023-07-02T10:10:51;101005.94;;;21.68;100.00
54882;BME280;40775;51.448;4.742;2023-07-02T10:13:30;101008.34;;;21.78;100.00
54882;BME280;40775;51.448;4.742;2023-07-02T10:16:04;101009.50;;;21.68;100.00
54882;BME280;40775;51.448;4.742;2023-07-02T10:18:32;101020.19;;;21.68;100.00
54882;BME280;40775;51.448;4.742;2023-07-02T10:20:59;101019.16;;;21.74;100.00
54882;BME280;40775;51.448;4.742;2023-07-02T10:23:38;101028.94;;;21.75;100.00
54882;BME280;40775;51.448;4.742;2023-07-02T10:26:17;101015.84;;;21.61;100.00
54882;BME280;40775;51.448;4.742;2023-07-02T10:28:58;101020.97;;;21.72;100.00
54882;BME280;40775;51.448;4.742;2023-07-02T10:31:26;101013.72;;;21.77;100.00
54882;BME280;40775;51.448;4.742;2023-07-02T10:33:53;101016.59;;;21.69;100.00
54882;BME280;40775;51.448;4.742;2023-07-02T10:36:23;101014.66;;;21.76;100.00
54882;BME280;40775;51.448;4.742;2023-07-02T10:38:51;101017.34;;;21.74;100.00
54882;BME280;40775;51.448;4.742;2023-07-02T10:41:30;101012.16;;;22.07;100.00
54882;BME280;40775;51.448;4.742;2023-07-02T10:44:11;101009.25;;;22.51;100.00
54882;BME280;40775;51.448;4.742;2023-07-02T10:46:48;100998.03;;;22.70;100.00
54882;BME280;40775;51.448;4.742;2023-07-02T10:49:21;101000.53;;;22.77;100.00
54882;BME280;40775;51.448;4.742;2023-07-02T10:52:00;101004.91;;;22.80;100.00
54882;BME280;40775;51.448;4.742;2023-07-02T10:54:47;101002.72;;;22.62;100.00
54882;BME280;40775;51.448;4.742;2023-07-02T10:57:21;101003.56;;;22.64;100.00
54882;BME280;40775;51.448;4.742;2023-07-02T10:59:49;100997.28;;;22.65;100.00
54882;BME280;40775;51.448;4.742;2023-07-02T11:02:19;100992.81;;;22.65;100.00
54882;BME280;40775;51.448;4.742;2023-07-02T11:04:49;100998.63;;;22.83;100.00
54882;BME280;40775;51.448;4.742;2023-07-02T11:07:23;101003.19;;;22.77;100.00
54882;BME280;40775;51.448;4.742;2023-07-02T11:09:51;100997.38;;;22.94;100.00
54882;BME280;40775;51.448;4.742;2023-07-02T11:12:28;101009.59;;;22.38;98.36
54882;BME280;40775;51.448;4.742;2023-07-02T11:15:15;100998.19;;;22.98;100.00
54882;BME280;40775;51.448;4.742;2023-07-02T11:17:42;100999.50;;;23.14;100.00
54882;BME280;40775;51.448;4.742;2023-07-02T11:20:12;101001.28;;;23.74;100.00
54882;BME280;40775;51.448;4.742;2023-07-02T11:22:42;101004.09;;;23.69;100.00
54882;BME280;40775;51.448;4.742;2023-07-02T11:25:22;100992.06;;;23.83;93.87
54882;BME280;40775;51.448;4.742;2023-07-02T11:27:50;101001.00;;;24.10;92.34
54882;BME280;40775;51.448;4.742;2023-07-02T11:32:55;101018.66;;;23.90;86.47
54882;BME280;40775;51.448;4.742;2023-07-02T11:35:34;101009.31;;;24.02;86.62
54882;BME280;40775;51.448;4.742;2023-07-02T11:38:02;101023.75;;;23.98;83.81
54882;BME280;40775;51.448;4.742;2023-07-02T11:40:29;101021.13;;;23.68;85.88
54882;BME280;40775;51.448;4.742;2023-07-02T11:42:59;101007.41;;;24.05;83.94
54882;BME280;40775;51.448;4.742;2023-07-02T11:45:26;101014.47;;;24.36;81.41
54882;BME280;40775;51.448;4.742;2023-07-02T11:47:53;101009.09;;;24.08;80.49
54882;BME280;40775;51.448;4.742;2023-07-02T11:50:21;101011.00;;;24.32;81.09
54882;BME280;40775;51.448;4.742;2023-07-02T11:52:55;101012.59;;;24.12;76.86
54882;BME280;40775;51.448;4.742;2023-07-02T11:55:24;101001.63;;;24.46;82.93
54882;BME280;40775;51.448;4.742;2023-07-02T11:57:51;101014.75;;;24.27;76.74
54882;BME280;40775;51.448;4.742;2023-07-02T12:00:24;101014.84;;;24.24;75.55
54882;BME280;40775;51.448;4.742;2023-07-02T12:02:51;101003.59;;;24.41;76.10
54882;BME280;40775;51.448;4.742;2023-07-02T12:05:21;101021.91;;;24.79;74.47
54882;BME280;40775;51.448;4.742;2023-07-02T12:07:49;101015.56;;;24.82;76.05
54882;BME280;40775;51.448;4.742;2023-07-02T12:10:16;101012.13;;;24.25;80.67
54882;BME280;40775;51.448;4.742;2023-07-02T12:12:43;101012.75;;;24.60;84.54
54882;BME280;40775;51.448;4.742;2023-07-02T12:15:10;101021.91;;;24.26;80.28
54882;BME280;40775;51.448;4.742;2023-07-02T12:17:38;101025.59;;;24.77;81.54
54882;BME280;40775;51.448;4.742;2023-07-02T12:20:06;101010.47;;;24.74;82.05
54882;BME280;40775;51.448;4.742;2023-07-02T12:22:37;101012.16;;;25.26;83.29
54882;BME280;40775;51.448;4.742;2023-07-02T12:25:05;101028.22;;;24.78;80.19
54882;BME280;40775;51.448;4.742;2023-07-02T12:27:35;101037.00;;;24.57;81.65
54882;BME280;40775;51.448;4.742;2023-07-02T12:30:03;101025.94;;;24.68;86.02
54882;BME280;40775;51.448;4.742;2023-07-02T12:32:30;101028.00;;;24.84;82.80
54882;BME280;40775;51.448;4.742;2023-07-02T12:34:57;101028.75;;;24.37;87.94
54882;BME280;40775;51.448;4.742;2023-07-02T12:37:24;101040.00;;;24.21;86.96
54882;BME280;40775;51.448;4.742;2023-07-02T12:39:55;101026.69;;;24.71;86.98
54882;BME280;40775;51.448;4.742;2023-07-02T12:42:22;101026.28;;;24.57;86.98
54882;BME280;40775;51.448;4.742;2023-07-02T12:44:49;101033.53;;;24.80;83.06
54882;BME280;40775;51.448;4.742;2023-07-02T12:47:16;101044.69;;;24.43;75.96
54882;BME280;40775;51.448;4.742;2023-07-02T12:49:43;101015.78;;;25.25;82.28
54882;BME280;40775;51.448;4.742;2023-07-02T12:52:11;101022.25;;;25.67;82.28
54882;BME280;40775;51.448;4.742;2023-07-02T12:54:41;101026.63;;;25.22;82.05
54882;BME280;40775;51.448;4.742;2023-07-02T12:57:08;101024.69;;;25.03;81.60
54882;BME280;40775;51.448;4.742;2023-07-02T12:59:38;101033.13;;;25.40;83.53
54882;BME280;40775;51.448;4.742;2023-07-02T13:02:06;101033.00;;;25.43;86.60
54882;BME280;40775;51.448;4.742;2023-07-02T13:04:33;101030.78;;;25.54;83.92
54882;BME280;40775;51.448;4.742;2023-07-02T13:07:00;101023.03;;;25.23;83.65
54882;BME280;40775;51.448;4.742;2023-07-02T13:09:27;101023.78;;;25.27;84.83